Carl Fisher, Florida
Current Conditions -  °F | °C
As of 12:53 AM on Tuesday 21 Oct 2014 (Local Time) from KMIA Reporting Station
Overcast Overcast  
Wind Chill: 76°   Ceiling: 9000
Heat Index: 76°   Visibility: 10mi
Dew Point: 71°   Wind: 3mph
Humidity: 85%   Direction: 330°NNW
Pressure: 29.96"   Gusts: NA
Location:  25.791°N, 80.1427°W
Report Text: KMIA 210453Z 33003KT 10SM FEW050 BKN090 OVC200 24/22 A2996 RMK AO2 SLP145 T02440217 402940211
Loading
Personal Weather Stations






























Interactive Weather Map
Tropical Storm Tracking
New forecast layout! Learn more

10-Day Weather Forecast

Advertisements
Track Severe Weather on mobile